Terminal Aerodrome Forecast
Issued by NWS

Home | Current Version | Previous Version | Text Only | Print | Product List | Glossary On
Versions: 1 2 3 4 5 6 7 8 9 10 11 12 13 14 15
000
FTUS46 KMTR 302300 RRA
TAFSNS
TAF
KSNS 302348Z 3100/3124 28010KT P6SM SKC
     FM310300 28004KT P6SM SCT012
     FM310500 VRB03KT P6SM BKN012
     FM317000 12006KT P6SM SCT010=

USA.gov is the U.S. government's official web portal to all federal, state and local government web resources and services.